Time;durP1;ratioP1;P1;durP2;ratioP2;P2;SDS_P1;SDS_P2;PMS_P1;PMS_P2;Temp;Humidity;BMP_temperature;BMP_pressure;BME280_temperature;BME280_humidity;BME280_pressure;Samples;Min_cycle;Max_cycle;Signal;HPM_P1;HPM_P2
2021/08/27 00:01:07;;;;;;;19.25;6.00;;;;;;;11.40;100.00;101824.28;5224239;28;20386;-79
2021/08/27 00:03:37;;;;;;;24.25;5.82;;;;;;;11.32;100.00;101819.63;5224271;28;20024;-79
2021/08/27 00:06:08;;;;;;;24.80;6.63;;;;;;;11.28;100.00;101826.28;5224307;28;20429;-79
2021/08/27 00:08:39;;;;;;;18.48;6.47;;;;;;;11.22;100.00;101821.50;5223869;28;20108;-80
2021/08/27 00:11:11;;;;;;;24.50;6.95;;;;;;;11.17;100.00;101817.56;5225153;28;20089;-80
2021/08/27 00:13:42;;;;;;;22.38;6.97;;;;;;;11.13;100.00;101823.22;5210976;28;20112;-80
2021/08/27 00:16:13;;;;;;;24.58;6.78;;;;;;;11.09;100.00;101813.78;5224132;28;20036;-79
2021/08/27 00:18:43;;;;;;;27.27;7.15;;;;;;;11.13;100.00;101817.00;5224148;28;20025;-80
2021/08/27 00:21:14;;;;;;;24.52;6.57;;;;;;;11.13;100.00;101817.84;5221499;28;20027;-79
2021/08/27 00:23:44;;;;;;;29.45;6.85;;;;;;;11.18;100.00;101813.88;5213131;28;20261;-80
2021/08/27 00:26:15;;;;;;;26.55;7.47;;;;;;;11.17;100.00;101812.19;5223868;28;20013;-80
2021/08/27 00:28:45;;;;;;;23.33;6.20;;;;;;;11.13;100.00;101817.84;5223847;28;20029;-80
2021/08/27 00:31:16;;;;;;;21.75;7.13;;;;;;;11.12;100.00;101810.78;5192416;28;20113;-80
2021/08/27 00:33:46;;;;;;;24.50;6.75;;;;;;;11.07;100.00;101813.06;5223453;28;20074;-80
2021/08/27 00:36:17;;;;;;;23.00;6.68;;;;;;;11.02;100.00;101809.97;5229927;28;20025;-80
2021/08/27 00:38:47;;;;;;;18.50;6.05;;;;;;;10.96;100.00;101821.31;5230481;28;20522;-79
2021/08/27 00:41:20;;;;;;;18.50;6.25;;;;;;;10.89;100.00;101818.38;5230333;28;20466;-80
2021/08/27 00:43:50;;;;;;;25.23;6.30;;;;;;;10.84;100.00;101822.44;5231126;28;20528;-80
2021/08/27 00:46:21;;;;;;;19.83;5.68;;;;;;;10.79;100.00;101813.97;5231420;28;20063;-80
2021/08/27 00:48:51;;;;;;;21.20;6.25;;;;;;;10.73;100.00;101826.13;5231860;28;20037;-80
2021/08/27 00:51:22;;;;;;;23.88;5.60;;;;;;;10.70;100.00;101826.44;5230085;28;20561;-80
2021/08/27 00:53:52;;;;;;;15.57;5.75;;;;;;;10.72;100.00;101824.44;5229380;28;20028;-80
2021/08/27 00:56:23;;;;;;;20.00;5.05;;;;;;;10.80;100.00;101821.06;5229528;28;20395;-79
2021/08/27 00:58:54;;;;;;;11.93;4.10;;;;;;;10.82;100.00;101819.91;5223001;28;20032;-79
2021/08/27 01:01:25;;;;;;;17.17;5.15;;;;;;;10.80;100.00;101829.13;5222398;28;20057;-80
2021/08/27 01:03:56;;;;;;;12.32;4.35;;;;;;;10.77;100.00;101824.03;5223990;28;20076;-80
2021/08/27 01:06:40;;;;;;;15.77;4.38;;;;;;;10.71;100.00;101821.91;5224294;28;20094;-80
2021/08/27 01:09:51;;;;;;;13.15;4.53;;;;;;;10.64;100.00;101827.00;5229701;28;20081;-80
2021/08/27 01:12:51;;;;;;;13.52;4.18;;;;;;;10.61;100.00;101821.94;5219155;28;20024;-80
2021/08/27 01:15:29;;;;;;;15.02;5.05;;;;;;;10.55;100.00;101827.88;5230619;28;20104;-80
2021/08/27 01:18:10;;;;;;;15.48;4.53;;;;;;;10.52;100.00;101826.31;5227142;28;20515;-80
2021/08/27 01:20:58;;;;;;;16.13;4.82;;;;;;;10.49;100.00;101828.41;5220061;28;20383;-80
2021/08/27 01:23:30;;;;;;;12.90;4.38;;;;;;;10.46;100.00;101826.03;5221970;28;20033;-80
2021/08/27 01:26:04;;;;;;;20.38;4.78;;;;;;;10.43;100.00;101829.84;5223195;28;20024;-79
2021/08/27 01:28:41;;;;;;;10.15;3.88;;;;;;;10.37;100.00;101825.03;5229818;28;20029;-79
2021/08/27 01:31:25;;;;;;;13.35;3.85;;;;;;;10.33;100.00;101821.78;5225281;28;20025;-80
2021/08/27 01:34:13;;;;;;;12.13;3.72;;;;;;;10.30;100.00;101821.25;5222308;28;20029;-80
2021/08/27 01:36:46;;;;;;;14.95;4.35;;;;;;;10.27;100.00;101824.19;5218251;28;20021;-80
2021/08/27 01:39:23;;;;;;;17.60;4.47;;;;;;;10.21;100.00;101819.38;5227787;28;20056;-80
2021/08/27 01:41:56;;;;;;;14.13;4.20;;;;;;;10.20;100.00;101820.34;5225959;28;20021;-79
2021/08/27 01:44:28;;;;;;;18.85;4.65;;;;;;;10.20;100.00;101815.00;5225070;28;20390;-79
2021/08/27 01:47:02;;;;;;;10.30;3.72;;;;;;;10.23;100.00;101825.41;5224820;28;20024;-79
2021/08/27 01:49:33;;;;;;;12.13;3.90;;;;;;;10.22;100.00;101826.41;5215931;28;20028;-80
2021/08/27 01:52:08;;;;;;;19.20;4.85;;;;;;;10.21;100.00;101824.72;5218027;28;20025;-80
2021/08/27 01:54:39;;;;;;;10.52;3.75;;;;;;;10.24;100.00;101825.34;5203649;28;20048;-80
2021/08/27 01:57:10;;;;;;;10.75;3.35;;;;;;;10.17;100.00;101829.50;5227828;28;20066;-80
2021/08/27 01:59:44;;;;;;;13.95;3.95;;;;;;;10.18;100.00;101825.84;5229347;28;20107;-79
2021/08/27 02:02:16;;;;;;;15.23;4.10;;;;;;;10.14;100.00;101827.13;5230826;28;20045;-80
2021/08/27 02:04:52;;;;;;;16.52;4.15;;;;;;;10.12;100.00;101834.44;5228872;28;20021;-79
2021/08/27 02:07:23;;;;;;;14.60;4.18;;;;;;;10.10;100.00;101839.13;5229080;28;20025;-80
2021/08/27 02:09:55;;;;;;;9.88;3.50;;;;;;;10.06;100.00;101835.84;5228749;28;20110;-79
2021/08/27 02:12:29;;;;;;;9.77;4.10;;;;;;;10.08;100.00;101833.88;5229755;28;20025;-80
2021/08/27 02:15:00;;;;;;;20.23;4.20;;;;;;;10.08;100.00;101835.72;5229489;28;20367;-80
2021/08/27 02:17:31;;;;;;;14.90;3.70;;;;;;;10.05;100.00;101842.22;5224966;28;20036;-80
2021/08/27 02:20:03;;;;;;;18.15;3.95;;;;;;;10.02;100.00;101845.16;5210172;28;20096;-80
2021/08/27 02:22:35;;;;;;;17.65;4.80;;;;;;;9.98;100.00;101835.69;5224211;28;20467;-80
2021/08/27 02:25:12;;;;;;;11.55;3.47;;;;;;;9.99;100.00;101831.16;5224310;28;20028;-79
2021/08/27 02:27:45;;;;;;;14.20;4.53;;;;;;;10.02;100.00;101836.28;5224623;28;20447;-80
2021/08/27 02:30:16;;;;;;;13.45;5.03;;;;;;;10.04;100.00;101834.28;5223811;28;20031;-80
2021/08/27 02:32:48;;;;;;;14.70;4.40;;;;;;;10.03;100.00;101836.13;5224164;28;20063;-80
2021/08/27 02:35:19;;;;;;;14.48;5.07;;;;;;;10.01;100.00;101838.09;5224065;28;20083;-80
2021/08/27 02:37:50;;;;;;;22.23;4.45;;;;;;;9.98;100.00;101832.16;5224168;28;20049;-80
2021/08/27 02:40:21;;;;;;;17.63;4.97;;;;;;;9.89;100.00;101836.53;5224065;28;20032;-80
2021/08/27 02:42:51;;;;;;;16.17;4.00;;;;;;;9.84;100.00;101838.78;5210128;28;20028;-80
2021/08/27 02:45:22;;;;;;;10.60;3.75;;;;;;;9.78;100.00;101839.31;5228330;28;20032;-80
2021/08/27 02:47:52;;;;;;;11.68;4.63;;;;;;;9.75;100.00;101842.28;5227885;28;20040;-80
2021/08/27 02:50:23;;;;;;;14.00;4.05;;;;;;;9.72;100.00;101842.53;5228288;28;20028;-80
2021/08/27 02:53:01;;;;;;;8.13;3.70;;;;;;;9.67;100.00;101844.78;5228474;28;20028;-80
2021/08/27 02:55:37;;;;;;;14.10;4.47;;;;;;;9.66;100.00;101835.06;5227558;28;20025;-80
2021/08/27 02:58:14;;;;;;;10.80;4.07;;;;;;;9.62;100.00;101839.81;5215388;28;20033;-80
2021/08/27 03:00:52;;;;;;;18.20;4.78;;;;;;;9.68;100.00;101844.63;5214561;28;20029;-80
2021/08/27 03:03:27;;;;;;;12.20;4.63;;;;;;;9.68;100.00;101836.59;5224875;28;20024;-80
2021/08/27 03:06:08;;;;;;;12.68;4.22;;;;;;;9.66;100.00;101835.06;5217202;28;20548;-81
2021/08/27 03:08:46;;;;;;;16.42;5.15;;;;;;;9.63;100.00;101828.13;5227308;28;20021;-79
2021/08/27 03:11:21;;;;;;;13.40;4.85;;;;;;;9.60;100.00;101828.41;5228324;28;20325;-80
2021/08/27 03:14:01;;;;;;;16.20;4.45;;;;;;;9.65;100.00;101833.38;5219665;28;20029;-80
2021/08/27 03:16:32;;;;;;;19.15;5.38;;;;;;;9.61;100.00;101832.78;5217549;28;20127;-79
2021/08/27 03:19:19;;;;;;;11.23;4.15;;;;;;;9.55;100.00;101834.19;5217178;28;20029;-78
2021/08/27 03:21:57;;;;;;;8.85;3.60;;;;;;;9.56;100.00;101833.19;5213697;28;20029;-79
2021/08/27 03:24:33;;;;;;;18.98;4.38;;;;;;;9.51;100.00;101829.22;5225496;28;20031;-80
2021/08/27 03:27:10;;;;;;;14.27;4.10;;;;;;;9.49;100.00;101825.84;5197437;28;20152;-79
2021/08/27 03:29:48;;;;;;;13.82;4.15;;;;;;;9.45;100.00;101825.25;5223695;28;20120;-78
2021/08/27 03:32:19;;;;;;;10.65;4.05;;;;;;;9.43;100.00;101821.84;5225320;28;20030;-80
2021/08/27 03:34:51;;;;;;;12.32;4.07;;;;;;;9.47;100.00;101817.91;5211912;28;20032;-80
2021/08/27 03:37:22;;;;;;;12.93;4.07;;;;;;;9.48;100.00;101821.44;5225227;28;20033;-80
2021/08/27 03:39:55;;;;;;;8.15;3.45;;;;;;;9.56;100.00;101819.78;5225084;28;20025;-78
2021/08/27 03:42:25;;;;;;;18.40;3.97;;;;;;;9.74;100.00;101816.44;5224300;28;20025;-79
2021/08/27 03:44:56;;;;;;;12.88;3.80;;;;;;;9.84;100.00;101817.34;5224760;28;20025;-78
2021/08/27 03:47:29;;;;;;;13.75;3.80;;;;;;;9.85;100.00;101824.41;5225706;28;20478;-79
2021/08/27 03:50:00;;;;;;;14.30;4.93;;;;;;;9.93;100.00;101823.69;5225348;28;20029;-79
2021/08/27 03:52:31;;;;;;;18.42;4.15;;;;;;;9.98;100.00;101830.31;5225553;28;20040;-79
2021/08/27 03:55:03;;;;;;;14.48;3.35;;;;;;;10.09;100.00;101832.03;5224872;28;20100;-80
2021/08/27 03:57:36;;;;;;;24.27;4.38;;;;;;;10.09;100.00;101838.28;5213528;28;20029;-79
2021/08/27 04:00:08;;;;;;;14.13;2.88;;;;;;;10.05;100.00;101836.84;5224873;28;20024;-79
2021/08/27 04:02:39;;;;;;;8.27;2.60;;;;;;;9.98;100.00;101842.88;5226094;28;20577;-80
2021/08/27 04:05:14;;;;;;;11.90;2.78;;;;;;;9.94;100.00;101844.13;5225184;28;20048;-79
2021/08/27 04:07:45;;;;;;;11.75;3.30;;;;;;;9.85;100.00;101841.31;5227043;28;20036;-80
2021/08/27 04:10:18;;;;;;;13.05;2.95;;;;;;;9.77;100.00;101833.09;5229055;28;20363;-79
2021/08/27 04:12:49;;;;;;;9.82;3.10;;;;;;;9.68;100.00;101839.28;5229879;28;20025;-80
2021/08/27 04:15:23;;;;;;;28.25;4.60;;;;;;;9.66;100.00;101843.09;5216460;28;20070;-79
2021/08/27 04:17:53;;;;;;;11.05;2.90;;;;;;;9.58;100.00;101841.94;5216191;28;20018;-80
2021/08/27 04:20:24;;;;;;;11.02;2.92;;;;;;;9.52;100.00;101846.97;5230679;28;20063;-80
2021/08/27 04:22:54;;;;;;;14.48;2.95;;;;;;;9.47;100.00;101842.03;5228507;28;20483;-79
2021/08/27 04:25:24;;;;;;;15.57;3.55;;;;;;;9.41;100.00;101847.94;5229000;28;20388;-80
2021/08/27 04:27:55;;;;;;;8.75;2.70;;;;;;;9.37;100.00;101846.50;5216470;28;20013;-80
2021/08/27 04:30:26;;;;;;;12.32;3.17;;;;;;;9.36;100.00;101854.69;5229785;28;20017;-80
2021/08/27 04:32:56;;;;;;;13.02;3.45;;;;;;;9.40;100.00;101856.97;5230177;28;20092;-80
2021/08/27 04:35:27;;;;;;;18.55;3.33;;;;;;;9.50;100.00;101851.63;5217970;28;20100;-80
2021/08/27 04:37:57;;;;;;;13.35;4.05;;;;;;;9.56;100.00;101849.25;5228866;28;20021;-80
2021/08/27 04:40:28;;;;;;;15.32;2.95;;;;;;;9.72;100.00;101855.94;5228819;28;20029;-77
2021/08/27 04:42:59;;;;;;;15.32;4.00;;;;;;;9.82;100.00;101852.31;5230439;28;20466;-80
2021/08/27 04:45:29;;;;;;;11.13;2.95;;;;;;;9.86;100.00;101853.72;5216316;28;20044;-79
2021/08/27 04:48:00;;;;;;;14.13;4.03;;;;;;;9.90;100.00;101854.31;5229247;28;20090;-78
2021/08/27 04:50:30;;;;;;;14.10;3.13;;;;;;;9.94;100.00;101865.59;5226231;28;20021;-80
2021/08/27 04:53:01;;;;;;;9.30;3.03;;;;;;;9.93;100.00;101862.06;5219554;28;20056;-78
2021/08/27 04:55:31;;;;;;;9.90;2.38;;;;;;;9.95;100.00;101865.47;5229382;28;20023;-80
2021/08/27 04:58:02;;;;;;;14.02;2.88;;;;;;;10.01;100.00;101867.59;5230071;28;20399;-80
2021/08/27 05:00:32;;;;;;;14.07;2.90;;;;;;;10.08;100.00;101860.69;5228856;28;20029;-79
2021/08/27 05:03:03;;;;;;;14.48;3.63;;;;;;;10.15;100.00;101863.69;5229923;28;20075;-78
2021/08/27 05:05:35;;;;;;;10.30;3.03;;;;;;;10.25;100.00;101866.41;5198260;28;20082;-79
2021/08/27 05:08:05;;;;;;;12.55;2.20;;;;;;;10.34;100.00;101869.09;5229673;28;20100;-80
2021/08/27 05:10:36;;;;;;;9.15;2.60;;;;;;;10.44;100.00;101866.44;5229579;28;20055;-79
2021/08/27 05:13:06;;;;;;;19.58;2.60;;;;;;;10.63;100.00;101871.78;5229681;28;20028;-80
2021/08/27 05:15:37;;;;;;;15.73;2.55;;;;;;;10.70;100.00;101868.53;5229010;28;20052;-80
2021/08/27 05:18:07;;;;;;;23.80;2.40;;;;;;;10.77;100.00;101873.19;5225836;28;20036;-79
2021/08/27 05:20:38;;;;;;;8.43;2.25;;;;;;;10.85;100.00;101873.31;5214772;28;20034;-80
2021/08/27 05:23:08;;;;;;;7.88;2.03;;;;;;;10.92;100.00;101872.75;5219134;28;20022;-80
2021/08/27 05:25:39;;;;;;;17.27;2.30;;;;;;;11.22;100.00;101874.38;5217219;28;20103;-78
2021/08/27 05:28:09;;;;;;;11.55;2.13;;;;;;;12.01;100.00;101874.78;5212612;28;20020;-80
2021/08/27 05:30:40;;;;;;;8.00;2.22;;;;;;;12.81;100.00;101882.97;5225342;28;20025;-79
2021/08/27 05:33:10;;;;;;;7.28;1.90;;;;;;;13.12;100.00;101881.53;5211981;28;20025;-80
2021/08/27 05:35:41;;;;;;;9.65;1.50;;;;;;;13.04;100.00;101886.00;5211466;28;20176;-79
2021/08/27 05:38:11;;;;;;;14.93;1.85;;;;;;;12.70;100.00;101890.31;5217034;28;20017;-81
2021/08/27 05:40:42;;;;;;;11.95;1.63;;;;;;;12.47;100.00;101883.69;5218351;28;20110;-80
2021/08/27 05:43:12;;;;;;;13.50;4.18;;;;;;;12.35;100.00;101887.56;5224244;28;20032;-80
2021/08/27 05:45:43;;;;;;;10.55;2.15;;;;;;;12.23;100.00;101895.03;5207074;28;20020;-82
2021/08/27 05:48:13;;;;;;;7.40;1.42;;;;;;;12.29;100.00;101894.41;5223503;28;20031;-78
2021/08/27 05:50:44;;;;;;;12.82;2.30;;;;;;;12.33;100.00;101893.13;5223940;28;20025;-80
2021/08/27 05:53:15;;;;;;;4.35;1.83;;;;;;;12.37;100.00;101902.59;5223417;28;20023;-79
2021/08/27 05:55:45;;;;;;;16.85;2.22;;;;;;;12.54;100.00;101903.59;5223644;28;20470;-77
2021/08/27 05:58:16;;;;;;;15.23;2.35;;;;;;;12.91;100.00;101892.66;5210417;28;20632;-79
2021/08/27 06:00:47;;;;;;;6.90;1.58;;;;;;;13.69;100.00;101897.22;5223219;28;20070;-79
2021/08/27 06:03:18;;;;;;;9.65;1.77;;;;;;;14.19;100.00;101891.00;5221893;28;20032;-80
2021/08/27 06:05:48;;;;;;;5.88;1.73;;;;;;;14.21;100.00;101895.25;5211863;28;20032;-79
2021/08/27 06:08:19;;;;;;;12.80;1.70;;;;;;;13.99;100.00;101893.97;5223841;28;20102;-80
2021/08/27 06:10:49;;;;;;;12.48;2.00;;;;;;;13.61;100.00;101895.34;5205590;28;20086;-78
2021/08/27 06:13:19;;;;;;;11.88;1.83;;;;;;;13.53;100.00;101905.22;5219109;28;20386;-80
2021/08/27 06:15:50;;;;;;;12.68;2.40;;;;;;;13.29;100.00;101903.22;5214155;28;20568;-79
2021/08/27 06:18:21;;;;;;;13.38;2.03;;;;;;;13.24;100.00;101903.69;5223259;28;20025;-80
2021/08/27 06:20:51;;;;;;;8.05;2.25;;;;;;;13.23;100.00;101903.88;5223115;28;20024;-80
2021/08/27 06:23:22;;;;;;;5.07;1.85;;;;;;;13.16;100.00;101912.56;5223850;28;20508;-83
2021/08/27 06:25:52;;;;;;;9.45;2.30;;;;;;;13.21;100.00;101899.47;5223075;28;20025;-80
2021/08/27 06:28:23;;;;;;;15.43;2.40;;;;;;;13.25;100.00;101907.22;5222996;28;20067;-79
2021/08/27 06:30:53;;;;;;;16.25;2.38;;;;;;;13.37;100.00;101909.53;5209166;28;20037;-83
2021/08/27 06:33:24;;;;;;;12.60;2.10;;;;;;;13.37;100.00;101909.53;5222409;28;20025;-78
2021/08/27 06:35:54;;;;;;;10.98;2.17;;;;;;;13.40;100.00;101908.34;5222541;28;20039;-80
2021/08/27 06:38:25;;;;;;;6.85;1.98;;;;;;;13.49;100.00;101910.09;5222374;28;20471;-82
2021/08/27 06:41:00;;;;;;;11.23;2.05;;;;;;;13.46;100.00;101907.72;5216428;28;20090;-81
2021/08/27 06:43:33;;;;;;;10.60;2.07;;;;;;;13.63;100.00;101909.50;5221178;28;20434;-81
2021/08/27 06:46:08;;;;;;;9.57;2.08;;;;;;;13.62;100.00;101915.06;5220875;28;20545;-80
2021/08/27 06:48:39;;;;;;;11.35;2.22;;;;;;;13.61;100.00;101921.47;5201061;28;20032;-80
2021/08/27 06:51:10;;;;;;;6.65;1.60;;;;;;;13.65;100.00;101922.81;5210795;28;20478;-81
2021/08/27 06:53:40;;;;;;;9.25;1.63;;;;;;;13.81;100.00;101922.91;5224884;28;20056;-81
2021/08/27 06:56:11;;;;;;;8.77;1.70;;;;;;;13.99;100.00;101920.97;5224338;28;20385;-79
2021/08/27 06:58:41;;;;;;;10.40;1.83;;;;;;;14.20;100.00;101914.28;5223133;28;20064;-80
2021/08/27 07:01:12;;;;;;;9.77;1.77;;;;;;;14.35;100.00;101922.59;5220452;28;20025;-80
2021/08/27 07:03:42;;;;;;;7.80;1.52;;;;;;;14.46;100.00;101923.13;5195471;28;20021;-80
2021/08/27 07:06:14;;;;;;;8.10;1.77;;;;;;;14.54;100.00;101924.19;5213557;28;20029;-79
2021/08/27 07:08:44;;;;;;;6.70;1.20;;;;;;;14.44;100.00;101922.44;5229891;28;20021;-81
2021/08/27 07:11:16;;;;;;;10.30;1.77;;;;;;;14.42;100.00;101920.94;5230016;28;20033;-79
2021/08/27 07:13:46;;;;;;;7.38;1.70;;;;;;;14.67;100.00;101924.56;5217002;28;20112;-79
2021/08/27 07:16:17;;;;;;;5.80;1.50;;;;;;;14.76;100.00;101916.28;5230167;28;20052;-80
2021/08/27 07:18:47;;;;;;;5.82;1.77;;;;;;;14.66;100.00;101921.00;5229565;28;20017;-80
2021/08/27 07:21:18;;;;;;;10.88;1.80;;;;;;;14.68;100.00;101921.69;5229955;28;20024;-81
2021/08/27 07:23:48;;;;;;;8.38;1.45;;;;;;;14.77;100.00;101917.97;5229860;28;20036;-80
2021/08/27 07:26:19;;;;;;;14.07;1.90;;;;;;;14.81;100.00;101931.13;5211987;28;20075;-80
2021/08/27 07:28:49;;;;;;;6.68;2.65;;;;;;;14.93;100.00;101932.50;5230303;28;20029;-80
2021/08/27 07:31:20;;;;;;;10.57;1.98;;;;;;;15.02;100.00;101937.75;5224133;28;20033;-80
2021/08/27 07:33:50;;;;;;;8.95;1.63;;;;;;;15.08;100.00;101938.91;5222757;28;20556;-81
2021/08/27 07:36:21;;;;;;;11.10;2.28;;;;;;;15.09;100.00;101946.00;5229989;28;20104;-81
2021/08/27 07:38:51;;;;;;;10.40;1.80;;;;;;;15.34;100.00;101949.53;5228877;28;20028;-79
2021/08/27 07:41:22;;;;;;;8.30;1.42;;;;;;;15.23;100.00;101948.03;5209458;28;20021;-80
2021/08/27 07:43:52;;;;;;;5.22;1.48;;;;;;;15.25;100.00;101942.44;5230622;28;20108;-80
2021/08/27 07:46:22;;;;;;;5.35;1.45;;;;;;;15.18;100.00;101949.56;5230022;28;20078;-86
2021/08/27 07:48:53;;;;;;;8.68;1.98;;;;;;;15.18;100.00;101949.56;5229691;28;20061;-80
2021/08/27 07:51:23;;;;;;;9.98;1.30;;;;;;;15.31;100.00;101954.44;5211731;28;20032;-81
2021/08/27 07:53:54;;;;;;;11.95;2.08;;;;;;;15.28;100.00;101951.06;5229976;28;20021;-79
2021/08/27 07:56:24;;;;;;;5.20;1.08;;;;;;;15.45;100.00;101953.75;5230273;28;20029;-80
2021/08/27 07:58:55;;;;;;;6.97;1.30;;;;;;;15.60;100.00;101953.91;5211968;28;20029;-80
2021/08/27 08:01:25;;;;;;;4.55;1.25;;;;;;;15.75;100.00;101961.16;5230037;28;20354;-79
2021/08/27 08:03:56;;;;;;;2.30;1.23;;;;;;;15.83;100.00;101954.88;5211290;28;20021;-81
2021/08/27 08:06:27;;;;;;;3.30;1.00;;;;;;;15.99;100.00;101948.56;5212620;28;20025;-80
2021/08/27 08:08:59;;;;;;;6.07;1.45;;;;;;;16.04;100.00;101947.03;5221463;28;20386;-78
2021/08/27 08:11:29;;;;;;;8.25;1.40;;;;;;;16.22;100.00;101949.50;5228050;28;20375;-81
2021/08/27 08:14:00;;;;;;;4.85;1.02;;;;;;;16.34;100.00;101951.81;5218159;28;20076;-80
2021/08/27 08:16:31;;;;;;;10.15;1.90;;;;;;;16.64;100.00;101950.94;5219996;28;20557;-81
2021/08/27 08:19:01;;;;;;;6.63;1.20;;;;;;;16.82;100.00;101959.66;5224413;28;20114;-81
2021/08/27 08:21:32;;;;;;;6.95;1.63;;;;;;;16.80;100.00;101958.97;5224637;28;20028;-81
2021/08/27 08:24:02;;;;;;;10.02;1.98;;;;;;;16.99;100.00;101957.66;5224722;28;20029;-80
2021/08/27 08:26:33;;;;;;;6.75;1.95;;;;;;;17.02;100.00;101957.31;5209529;28;20036;-80
2021/08/27 08:29:05;;;;;;;7.47;1.17;;;;;;;17.20;100.00;101953.44;5210600;28;20024;-80
2021/08/27 08:31:36;;;;;;;6.13;1.33;;;;;;;17.29;100.00;101953.16;5210364;28;20029;-80
2021/08/27 08:34:06;;;;;;;11.85;1.85;;;;;;;17.54;100.00;101950.22;5223626;28;20163;-82
2021/08/27 08:36:36;;;;;;;8.07;1.90;;;;;;;17.70;100.00;101954.63;5214567;28;20064;-80
2021/08/27 08:39:07;;;;;;;11.60;2.03;;;;;;;17.85;100.00;101952.78;5218041;28;20497;-80
2021/08/27 08:41:38;;;;;;;10.45;1.60;;;;;;;17.77;100.00;101959.16;5224155;28;20374;-79
2021/08/27 08:44:08;;;;;;;9.25;2.10;;;;;;;17.86;100.00;101963.44;5218688;28;20029;-80
2021/08/27 08:46:40;;;;;;;15.40;1.83;;;;;;;17.96;100.00;101959.63;5214670;28;20021;-80
2021/08/27 08:49:13;;;;;;;8.05;1.60;;;;;;;18.32;100.00;101957.81;5222358;28;20110;-81
2021/08/27 08:51:44;;;;;;;9.52;1.40;;;;;;;18.30;100.00;101961.75;5223820;28;20083;-82
2021/08/27 08:54:17;;;;;;;3.58;1.15;;;;;;;18.33;100.00;101959.50;5223466;28;20102;-80
2021/08/27 08:56:47;;;;;;;7.78;1.30;;;;;;;18.52;100.00;101940.88;5220934;28;20036;-83
2021/08/27 08:59:19;;;;;;;7.68;0.95;;;;;;;18.71;100.00;101950.31;5210743;28;20037;-80
2021/08/27 09:01:49;;;;;;;7.40;1.52;;;;;;;18.79;100.00;101951.03;5191842;28;20061;-81
2021/08/27 09:04:20;;;;;;;6.80;1.35;;;;;;;19.07;100.00;101950.25;5222594;28;20033;-81
2021/08/27 09:06:50;;;;;;;9.95;1.45;;;;;;;19.24;100.00;101945.38;5222783;28;20017;-80
2021/08/27 09:09:34;;;;;;;10.35;1.52;;;;;;;19.24;100.00;101956.25;5211421;28;20025;-81
2021/08/27 09:12:21;;;;;;;8.55;1.13;;;;;;;19.38;100.00;101945.28;5223190;28;20054;-80
2021/08/27 09:15:04;;;;;;;3.60;1.35;;;;;;;19.11;100.00;101960.53;5222889;28;20112;-82
2021/08/27 09:17:43;;;;;;;5.28;1.10;;;;;;;18.97;100.00;101953.28;5210187;28;20069;-80
2021/08/27 09:20:16;;;;;;;3.53;1.17;;;;;;;19.05;100.00;101952.31;5201828;28;20025;-85
2021/08/27 09:22:56;;;;;;;5.70;1.13;;;;;;;19.03;100.00;101957.97;5198111;28;20513;-81
2021/08/27 09:25:31;;;;;;;2.70;0.82;;;;;;;19.14;100.00;101952.00;5195903;28;20029;-80
2021/08/27 09:28:13;;;;;;;;;;;;;;;19.16;100.00;101951.78;5223503;28;20029;-81
2021/08/27 09:30:52;;;;;;;5.78;1.30;;;;;;;19.31;100.00;101955.25;5222327;28;19909;-83
2021/08/27 09:33:26;;;;;;;3.58;1.08;;;;;;;19.07;100.00;101955.69;5194590;28;20021;-82
2021/08/27 09:36:00;;;;;;;5.88;1.10;;;;;;;18.87;100.00;101961.75;5223260;28;20025;-80
2021/08/27 09:38:34;;;;;;;5.82;1.17;;;;;;;18.67;100.00;101957.97;5221623;28;20465;-81
2021/08/27 09:41:08;;;;;;;3.38;1.48;;;;;;;18.74;100.00;101952.66;5204433;28;20025;-80
2021/08/27 09:43:51;;;;;;;7.38;1.58;;;;;;;18.85;100.00;101952.97;5221771;28;20082;-81
2021/08/27 09:46:27;;;;;;;23.08;1.60;;;;;;;19.24;100.00;101951.66;5222117;28;20115;-77
2021/08/27 09:48:58;;;;;;;7.35;1.20;;;;;;;19.48;100.00;101953.09;5220928;28;20107;-79
2021/08/27 09:51:41;;;;;;;7.47;1.38;;;;;;;19.80;100.00;101948.09;5221714;28;20033;-79
2021/08/27 09:54:28;;;;;;;3.97;0.93;;;;;;;19.98;100.00;101948.44;5221301;28;20092;-79
2021/08/27 09:57:01;;;;;;;9.55;1.17;;;;;;;19.94;100.00;101955.31;5221539;28;20087;-81
2021/08/27 09:59:33;;;;;;;5.45;1.02;;;;;;;19.65;100.00;101956.38;5221054;28;20398;-79
2021/08/27 10:02:07;;;;;;;5.45;1.08;;;;;;;19.69;100.00;101949.50;5221182;28;20021;-80
2021/08/27 10:04:57;;;;;;;3.75;1.08;;;;;;;19.93;100.00;101953.63;5220938;28;20025;-80
2021/08/27 10:07:29;;;;;;;10.18;1.35;;;;;;;19.83;100.00;101948.56;5221638;28;20100;-80
2021/08/27 10:10:03;;;;;;;6.68;1.33;;;;;;;19.52;100.00;101940.75;5222340;28;20536;-80
2021/08/27 10:12:37;;;;;;;3.03;1.05;;;;;;;19.68;100.00;101942.38;5222120;28;20436;-81
2021/08/27 10:15:09;;;;;;;13.07;1.20;;;;;;;19.98;100.00;101923.91;5190789;28;20666;-81
2021/08/27 10:17:41;;;;;;;11.02;1.42;;;;;;;20.32;100.00;101922.97;5204373;28;20385;-81
2021/08/27 10:20:12;;;;;;;23.60;1.65;;;;;;;20.21;100.00;101928.19;5214731;28;20386;-81
2021/08/27 10:22:42;;;;;;;5.57;1.10;;;;;;;20.12;100.00;101928.34;5202722;28;20030;-81
2021/08/27 10:25:13;;;;;;;2.70;0.90;;;;;;;19.69;100.00;101930.44;5222993;28;21027;-81
2021/08/27 10:27:48;;;;;;;5.90;1.05;;;;;;;19.86;100.00;101931.78;5228215;28;20104;-80
2021/08/27 10:30:18;;;;;;;2.80;0.82;;;;;;;20.03;100.00;101920.56;5227327;28;20067;-80
2021/08/27 10:32:50;;;;;;;3.20;0.70;;;;;;;20.38;100.00;101918.59;5228300;28;20028;-82
2021/08/27 10:35:23;;;;;;;3.95;1.13;;;;;;;20.63;100.00;101927.94;5216109;28;20478;-81
2021/08/27 10:37:54;;;;;;;5.90;0.93;;;;;;;20.82;98.65;101929.00;5228178;28;20028;-81
2021/08/27 10:40:26;;;;;;;2.22;0.60;;;;;;;20.95;100.00;101936.38;5228320;28;20028;-81
2021/08/27 10:42:59;;;;;;;5.25;1.05;;;;;;;21.22;92.40;101934.47;5229328;28;20116;-80
2021/08/27 10:45:41;;;;;;;10.27;1.27;;;;;;;21.32;83.84;101924.00;5229323;28;20021;-80
2021/08/27 10:48:16;;;;;;;3.78;0.95;;;;;;;21.15;89.22;101929.03;5228562;28;20094;-81
2021/08/27 10:50:48;;;;;;;2.45;0.80;;;;;;;21.03;80.51;101919.78;5215246;28;20448;-81
2021/08/27 10:53:19;;;;;;;4.05;1.35;;;;;;;21.07;99.41;101914.75;5229306;28;20086;-82
2021/08/27 10:55:51;;;;;;;2.20;0.65;;;;;;;21.15;95.03;101920.00;5228686;28;20452;-80
2021/08/27 10:58:37;;;;;;;3.03;0.77;;;;;;;21.33;88.88;101917.47;5228959;28;20021;-82
2021/08/27 11:01:25;;;;;;;4.00;0.90;;;;;;;21.56;96.92;101918.94;5218054;28;20029;-81
2021/08/27 11:04:03;;;;;;;9.38;1.08;;;;;;;21.76;92.08;101922.47;5228814;28;20029;-81
2021/08/27 11:06:59;;;;;;;2.25;0.82;;;;;;;21.82;77.85;101923.50;5228620;28;20039;-80
2021/08/27 11:09:31;;;;;;;9.18;1.17;;;;;;;21.25;91.44;101925.03;5211014;28;20502;-83
2021/08/27 11:12:12;;;;;;;4.30;0.88;;;;;;;20.92;90.93;101926.69;5228816;28;20111;-81
2021/08/27 11:14:46;;;;;;;5.28;1.20;;;;;;;20.84;100.00;101929.66;5228931;28;20389;-81
2021/08/27 11:17:17;;;;;;;2.00;0.95;;;;;;;20.50;97.92;101919.72;5229195;28;20025;-81
2021/08/27 11:19:49;;;;;;;6.93;1.17;;;;;;;20.45;100.00;101922.19;5223780;28;20029;-82
2021/08/27 11:22:23;;;;;;;3.47;1.08;;;;;;;20.05;100.00;101921.22;5220149;28;20065;-82
2021/08/27 11:25:12;;;;;;;4.47;1.10;;;;;;;19.99;100.00;101922.03;5228978;28;20025;-82
2021/08/27 11:28:17;;;;;;;4.32;1.00;;;;;;;19.69;100.00;101919.56;5228782;28;20122;-80
2021/08/27 11:31:01;;;;;;;3.85;0.95;;;;;;;19.58;100.00;101920.09;5214868;28;20044;-81
2021/08/27 11:33:47;;;;;;;4.45;1.05;;;;;;;19.92;100.00;101919.25;5210964;28;20119;-80
2021/08/27 11:36:20;;;;;;;3.47;1.30;;;;;;;19.87;100.00;101921.75;5214760;28;20060;-81
2021/08/27 11:38:52;;;;;;;7.18;1.45;;;;;;;19.81;100.00;101928.84;5212308;28;20123;-82
2021/08/27 11:41:24;;;;;;;5.38;1.50;;;;;;;19.68;100.00;101923.34;5224597;28;20032;-81